sensor_id;sensor_type;location;lat;lon;timestamp;temperature;humidity
1205;DHT22;592;48.764;9.174;2022-11-10T00:02:14;11.80;99.90
1205;DHT22;592;48.764;9.174;2022-11-10T00:04:41;11.80;99.90
1205;DHT22;592;48.764;9.174;2022-11-10T00:07:07;11.90;99.90
1205;DHT22;592;48.764;9.174;2022-11-10T00:09:35;12.00;99.90
1205;DHT22;592;48.764;9.174;2022-11-10T00:12:02;12.00;99.90
1205;DHT22;592;48.764;9.174;2022-11-10T00:14:29;12.00;99.90
1205;DHT22;592;48.764;9.174;2022-11-10T00:17:13;12.10;99.90
1205;DHT22;592;48.764;9.174;2022-11-10T00:19:40;12.00;99.90
1205;DHT22;592;48.764;9.174;2022-11-10T00:22:07;12.00;99.90
1205;DHT22;592;48.764;9.174;2022-11-10T00:24:35;11.80;99.90
1205;DHT22;592;48.764;9.174;2022-11-10T00:27:02;11.80;99.90
1205;DHT22;592;48.764;9.174;2022-11-10T00:29:29;11.70;99.90
1205;DHT22;592;48.764;9.174;2022-11-10T00:31:56;11.80;99.90
1205;DHT22;592;48.764;9.174;2022-11-10T00:34:22;11.70;99.90
1205;DHT22;592;48.764;9.174;2022-11-10T00:36:49;11.60;99.90
1205;DHT22;592;48.764;9.174;2022-11-10T00:39:16;11.60;99.90
1205;DHT22;592;48.764;9.174;2022-11-10T00:41:44;11.70;99.90
1205;DHT22;592;48.764;9.174;2022-11-10T00:44:11;11.70;99.90
1205;DHT22;592;48.764;9.174;2022-11-10T00:46:37;11.80;99.90
1205;DHT22;592;48.764;9.174;2022-11-10T00:49:04;11.80;99.90
1205;DHT22;592;48.764;9.174;2022-11-10T00:51:31;11.80;99.90
1205;DHT22;592;48.764;9.174;2022-11-10T00:53:58;11.80;99.90
1205;DHT22;592;48.764;9.174;2022-11-10T00:56:25;11.80;99.90
1205;DHT22;592;48.764;9.174;2022-11-10T00:58:53;11.80;99.90
1205;DHT22;592;48.764;9.174;2022-11-10T01:01:21;11.90;99.90
1205;DHT22;592;48.764;9.174;2022-11-10T01:03:49;11.80;99.90
1205;DHT22;592;48.764;9.174;2022-11-10T01:06:18;11.80;99.90
1205;DHT22;592;48.764;9.174;2022-11-10T01:08:45;11.80;99.90
1205;DHT22;592;48.764;9.174;2022-11-10T01:11:13;11.80;99.90
1205;DHT22;592;48.764;9.174;2022-11-10T01:13:41;11.80;99.90
1205;DHT22;592;48.764;9.174;2022-11-10T01:16:11;11.90;99.90
1205;DHT22;592;48.764;9.174;2022-11-10T01:18:38;11.70;99.90
1205;DHT22;592;48.764;9.174;2022-11-10T01:21:05;11.60;99.90
1205;DHT22;592;48.764;9.174;2022-11-10T01:23:32;11.50;99.90
1205;DHT22;592;48.764;9.174;2022-11-10T01:26:00;11.50;99.90
1205;DHT22;592;48.764;9.174;2022-11-10T01:28:28;11.40;99.90
1205;DHT22;592;48.764;9.174;2022-11-10T01:30:56;11.40;99.90
1205;DHT22;592;48.764;9.174;2022-11-10T01:33:24;11.50;99.90
1205;DHT22;592;48.764;9.174;2022-11-10T01:35:51;11.50;99.90
1205;DHT22;592;48.764;9.174;2022-11-10T01:38:18;11.50;99.90
1205;DHT22;592;48.764;9.174;2022-11-10T01:40:45;11.50;99.90
1205;DHT22;592;48.764;9.174;2022-11-10T01:43:12;11.30;99.90
1205;DHT22;592;48.764;9.174;2022-11-10T01:45:50;11.20;99.90
1205;DHT22;592;48.764;9.174;2022-11-10T01:48:25;11.00;99.90
1205;DHT22;592;48.764;9.174;2022-11-10T01:50:52;11.00;99.90
1205;DHT22;592;48.764;9.174;2022-11-10T01:53:24;10.90;99.90
1205;DHT22;592;48.764;9.174;2022-11-10T01:55:52;10.90;99.90
1205;DHT22;592;48.764;9.174;2022-11-10T01:58:25;10.80;99.90
1205;DHT22;592;48.764;9.174;2022-11-10T02:00:53;10.80;99.90
1205;DHT22;592;48.764;9.174;2022-11-10T02:03:25;10.80;99.90
1205;DHT22;592;48.764;9.174;2022-11-10T02:05:55;10.80;99.90
1205;DHT22;592;48.764;9.174;2022-11-10T02:08:23;10.70;99.90
1205;DHT22;592;48.764;9.174;2022-11-10T02:10:50;10.70;99.90
1205;DHT22;592;48.764;9.174;2022-11-10T02:13:17;10.80;99.90
1205;DHT22;592;48.764;9.174;2022-11-10T02:15:44;10.70;99.90
1205;DHT22;592;48.764;9.174;2022-11-10T02:18:11;10.70;99.90
1205;DHT22;592;48.764;9.174;2022-11-10T02:20:45;10.70;99.90
1205;DHT22;592;48.764;9.174;2022-11-10T02:23:14;10.60;99.90
1205;DHT22;592;48.764;9.174;2022-11-10T02:26:00;10.70;99.90
1205;DHT22;592;48.764;9.174;2022-11-10T02:28:27;10.60;99.90
1205;DHT22;592;48.764;9.174;2022-11-10T02:30:58;10.60;99.90
1205;DHT22;592;48.764;9.174;2022-11-10T02:33:25;10.60;99.90
1205;DHT22;592;48.764;9.174;2022-11-10T02:35:53;10.50;99.90
1205;DHT22;592;48.764;9.174;2022-11-10T02:38:19;10.50;99.90
1205;DHT22;592;48.764;9.174;2022-11-10T02:40:48;10.50;99.90
1205;DHT22;592;48.764;9.174;2022-11-10T02:43:16;10.50;99.90
1205;DHT22;592;48.764;9.174;2022-11-10T02:45:44;10.50;99.90
1205;DHT22;592;48.764;9.174;2022-11-10T02:48:11;10.40;99.90
1205;DHT22;592;48.764;9.174;2022-11-10T02:50:39;10.40;99.90
1205;DHT22;592;48.764;9.174;2022-11-10T02:53:07;10.40;99.90
1205;DHT22;592;48.764;9.174;2022-11-10T02:55:34;10.50;99.90
1205;DHT22;592;48.764;9.174;2022-11-10T02:58:01;10.30;99.90
1205;DHT22;592;48.764;9.174;2022-11-10T03:00:28;10.30;99.90
1205;DHT22;592;48.764;9.174;2022-11-10T03:02:55;10.20;99.90
1205;DHT22;592;48.764;9.174;2022-11-10T03:05:22;10.10;99.90
1205;DHT22;592;48.764;9.174;2022-11-10T03:07:51;10.10;99.90
1205;DHT22;592;48.764;9.174;2022-11-10T03:10:21;9.90;99.90
1205;DHT22;592;48.764;9.174;2022-11-10T03:12:48;10.00;99.90
1205;DHT22;592;48.764;9.174;2022-11-10T03:15:15;10.00;99.90
1205;DHT22;592;48.764;9.174;2022-11-10T03:17:42;10.00;99.90
1205;DHT22;592;48.764;9.174;2022-11-10T03:20:09;9.90;99.90
1205;DHT22;592;48.764;9.174;2022-11-10T03:22:36;10.00;99.90
1205;DHT22;592;48.764;9.174;2022-11-10T03:25:03;10.00;99.90
1205;DHT22;592;48.764;9.174;2022-11-10T03:27:31;10.10;99.90
1205;DHT22;592;48.764;9.174;2022-11-10T03:29:58;10.10;99.90
1205;DHT22;592;48.764;9.174;2022-11-10T03:32:25;9.80;99.90
1205;DHT22;592;48.764;9.174;2022-11-10T03:34:52;9.40;99.90
1205;DHT22;592;48.764;9.174;2022-11-10T03:37:18;9.40;99.90
1205;DHT22;592;48.764;9.174;2022-11-10T03:39:46;9.40;99.90
1205;DHT22;592;48.764;9.174;2022-11-10T03:42:13;9.40;99.90
1205;DHT22;592;48.764;9.174;2022-11-10T03:44:41;9.30;99.90
1205;DHT22;592;48.764;9.174;2022-11-10T03:47:07;9.40;99.90
1205;DHT22;592;48.764;9.174;2022-11-10T03:49:34;9.50;99.90
1205;DHT22;592;48.764;9.174;2022-11-10T03:52:01;9.50;99.90
1205;DHT22;592;48.764;9.174;2022-11-10T03:54:28;9.50;99.90
1205;DHT22;592;48.764;9.174;2022-11-10T03:56:54;9.60;99.90
1205;DHT22;592;48.764;9.174;2022-11-10T03:59:21;9.60;99.90
1205;DHT22;592;48.764;9.174;2022-11-10T04:01:49;9.50;99.90
1205;DHT22;592;48.764;9.174;2022-11-10T04:04:16;9.50;99.90
1205;DHT22;592;48.764;9.174;2022-11-10T04:06:56;9.50;99.90
1205;DHT22;592;48.764;9.174;2022-11-10T04:09:41;9.30;99.90
1205;DHT22;592;48.764;9.174;2022-11-10T04:12:07;9.40;99.90
1205;DHT22;592;48.764;9.174;2022-11-10T04:14:52;9.40;99.90
1205;DHT22;592;48.764;9.174;2022-11-10T04:17:37;9.50;99.90
1205;DHT22;592;48.764;9.174;2022-11-10T04:20:05;9.30;99.90
1205;DHT22;592;48.764;9.174;2022-11-10T04:22:32;9.10;99.90
1205;DHT22;592;48.764;9.174;2022-11-10T04:25:13;9.10;99.90
1205;DHT22;592;48.764;9.174;2022-11-10T04:27:40;9.10;99.90
1205;DHT22;592;48.764;9.174;2022-11-10T04:30:07;9.20;99.90
1205;DHT22;592;48.764;9.174;2022-11-10T04:32:34;9.20;99.90
1205;DHT22;592;48.764;9.174;2022-11-10T04:35:02;9.20;99.90
1205;DHT22;592;48.764;9.174;2022-11-10T04:37:29;9.00;99.90
1205;DHT22;592;48.764;9.174;2022-11-10T04:39:56;8.80;99.90
1205;DHT22;592;48.764;9.174;2022-11-10T04:42:23;8.80;99.90
1205;DHT22;592;48.764;9.174;2022-11-10T04:44:49;8.60;99.90
1205;DHT22;592;48.764;9.174;2022-11-10T04:47:16;8.70;99.90
1205;DHT22;592;48.764;9.174;2022-11-10T04:49:43;8.80;99.90
1205;DHT22;592;48.764;9.174;2022-11-10T04:52:11;8.70;99.90
1205;DHT22;592;48.764;9.174;2022-11-10T04:54:38;8.60;99.90
1205;DHT22;592;48.764;9.174;2022-11-10T04:57:04;8.50;99.90
1205;DHT22;592;48.764;9.174;2022-11-10T04:59:31;8.40;99.90
1205;DHT22;592;48.764;9.174;2022-11-10T05:01:58;8.30;99.90
1205;DHT22;592;48.764;9.174;2022-11-10T05:04:25;8.40;99.90
1205;DHT22;592;48.764;9.174;2022-11-10T05:06:51;8.40;99.90
1205;DHT22;592;48.764;9.174;2022-11-10T05:09:20;8.50;99.90
1205;DHT22;592;48.764;9.174;2022-11-10T05:11:46;8.50;99.90
1205;DHT22;592;48.764;9.174;2022-11-10T05:14:13;8.40;99.90
1205;DHT22;592;48.764;9.174;2022-11-10T05:16:40;8.10;99.90
1205;DHT22;592;48.764;9.174;2022-11-10T05:19:07;8.20;99.90
1205;DHT22;592;48.764;9.174;2022-11-10T05:21:34;8.20;99.90
1205;DHT22;592;48.764;9.174;2022-11-10T05:24:00;8.00;99.90
1205;DHT22;592;48.764;9.174;2022-11-10T05:26:28;8.00;99.90
1205;DHT22;592;48.764;9.174;2022-11-10T05:28:55;8.00;99.90
1205;DHT22;592;48.764;9.174;2022-11-10T05:31:22;8.00;99.90
1205;DHT22;592;48.764;9.174;2022-11-10T05:33:49;7.80;99.90
1205;DHT22;592;48.764;9.174;2022-11-10T05:36:15;7.90;99.90
1205;DHT22;592;48.764;9.174;2022-11-10T05:38:42;7.90;99.90
1205;DHT22;592;48.764;9.174;2022-11-10T05:41:09;8.00;99.90
1205;DHT22;592;48.764;9.174;2022-11-10T05:43:37;8.00;99.90
1205;DHT22;592;48.764;9.174;2022-11-10T05:46:04;8.10;99.90
1205;DHT22;592;48.764;9.174;2022-11-10T05:48:31;8.00;99.90
1205;DHT22;592;48.764;9.174;2022-11-10T05:50:57;8.10;99.90
1205;DHT22;592;48.764;9.174;2022-11-10T05:53:24;8.10;99.90
1205;DHT22;592;48.764;9.174;2022-11-10T05:55:51;8.10;99.90
1205;DHT22;592;48.764;9.174;2022-11-10T05:58:18;8.10;99.90
1205;DHT22;592;48.764;9.174;2022-11-10T06:00:46;8.20;99.90
1205;DHT22;592;48.764;9.174;2022-11-10T06:03:14;8.00;99.90
1205;DHT22;592;48.764;9.174;2022-11-10T06:05:42;7.90;99.90
1205;DHT22;592;48.764;9.174;2022-11-10T06:08:08;7.70;99.90
1205;DHT22;592;48.764;9.174;2022-11-10T06:10:36;7.50;99.90
1205;DHT22;592;48.764;9.174;2022-11-10T06:13:03;7.60;99.90
1205;DHT22;592;48.764;9.174;2022-11-10T06:15:31;7.60;99.90
1205;DHT22;592;48.764;9.174;2022-11-10T06:17:59;7.70;99.90
1205;DHT22;592;48.764;9.174;2022-11-10T06:20:26;7.70;99.90
1205;DHT22;592;48.764;9.174;2022-11-10T06:22:57;7.70;99.90
1205;DHT22;592;48.764;9.174;2022-11-10T06:25:25;7.60;99.90
1205;DHT22;592;48.764;9.174;2022-11-10T06:27:52;7.60;99.90
1205;DHT22;592;48.764;9.174;2022-11-10T06:30:19;7.60;99.90
1205;DHT22;592;48.764;9.174;2022-11-10T06:32:46;7.70;99.90
1205;DHT22;592;48.764;9.174;2022-11-10T06:35:14;7.80;99.90
1205;DHT22;592;48.764;9.174;2022-11-10T06:37:41;7.80;99.90
1205;DHT22;592;48.764;9.174;2022-11-10T06:40:09;7.80;99.90
1205;DHT22;592;48.764;9.174;2022-11-10T06:42:37;7.60;99.90
1205;DHT22;592;48.764;9.174;2022-11-10T06:45:04;7.50;99.90
1205;DHT22;592;48.764;9.174;2022-11-10T06:47:31;7.50;99.90
1205;DHT22;592;48.764;9.174;2022-11-10T06:49:58;7.50;99.90
1205;DHT22;592;48.764;9.174;2022-11-10T06:52:26;7.60;99.90
1205;DHT22;592;48.764;9.174;2022-11-10T06:54:54;7.60;99.90
1205;DHT22;592;48.764;9.174;2022-11-10T06:57:23;7.60;99.90
1205;DHT22;592;48.764;9.174;2022-11-10T06:59:49;8.20;99.90
1205;DHT22;592;48.764;9.174;2022-11-10T07:02:16;8.60;99.90
1205;DHT22;592;48.764;9.174;2022-11-10T07:04:45;8.70;99.90
1205;DHT22;592;48.764;9.174;2022-11-10T07:07:12;8.80;99.90
1205;DHT22;592;48.764;9.174;2022-11-10T07:09:40;8.80;99.90
1205;DHT22;592;48.764;9.174;2022-11-10T07:12:07;8.80;99.90
1205;DHT22;592;48.764;9.174;2022-11-10T07:14:36;8.70;99.90
1205;DHT22;592;48.764;9.174;2022-11-10T07:17:03;8.60;99.90
1205;DHT22;592;48.764;9.174;2022-11-10T07:19:30;8.60;99.90
1205;DHT22;592;48.764;9.174;2022-11-10T07:21:57;8.50;99.90
1205;DHT22;592;48.764;9.174;2022-11-10T07:24:24;8.50;99.90
1205;DHT22;592;48.764;9.174;2022-11-10T07:26:52;8.40;99.90
1205;DHT22;592;48.764;9.174;2022-11-10T07:29:19;8.50;99.90
1205;DHT22;592;48.764;9.174;2022-11-10T07:31:45;8.40;99.90
1205;DHT22;592;48.764;9.174;2022-11-10T07:34:12;8.50;99.90
1205;DHT22;592;48.764;9.174;2022-11-10T07:36:39;8.50;99.90
1205;DHT22;592;48.764;9.174;2022-11-10T07:39:06;8.50;99.90
1205;DHT22;592;48.764;9.174;2022-11-10T07:41:33;8.50;99.90
1205;DHT22;592;48.764;9.174;2022-11-10T07:44:01;8.50;99.90
1205;DHT22;592;48.764;9.174;2022-11-10T07:46:28;8.60;99.90
1205;DHT22;592;48.764;9.174;2022-11-10T07:48:55;8.60;99.90
1205;DHT22;592;48.764;9.174;2022-11-10T07:51:21;8.60;99.90
1205;DHT22;592;48.764;9.174;2022-11-10T07:53:48;8.60;99.90
1205;DHT22;592;48.764;9.174;2022-11-10T07:56:15;8.70;99.90
1205;DHT22;592;48.764;9.174;2022-11-10T07:58:42;8.70;99.90
1205;DHT22;592;48.764;9.174;2022-11-10T08:01:10;8.80;99.90
1205;DHT22;592;48.764;9.174;2022-11-10T08:03:37;8.80;99.90
1205;DHT22;592;48.764;9.174;2022-11-10T08:06:04;8.90;99.90
1205;DHT22;592;48.764;9.174;2022-11-10T08:08:30;9.00;99.90
1205;DHT22;592;48.764;9.174;2022-11-10T08:10:59;8.90;99.90
1205;DHT22;592;48.764;9.174;2022-11-10T08:13:26;9.00;99.90
1205;DHT22;592;48.764;9.174;2022-11-10T08:15:53;8.90;99.90
1205;DHT22;592;48.764;9.174;2022-11-10T08:18:23;9.10;99.90
1205;DHT22;592;48.764;9.174;2022-11-10T08:20:50;9.20;99.90
1205;DHT22;592;48.764;9.174;2022-11-10T08:23:17;9.30;99.90
1205;DHT22;592;48.764;9.174;2022-11-10T08:25:44;9.30;99.90
1205;DHT22;592;48.764;9.174;2022-11-10T08:28:13;9.40;99.90
1205;DHT22;592;48.764;9.174;2022-11-10T08:30:44;9.50;99.90
1205;DHT22;592;48.764;9.174;2022-11-10T08:33:12;9.50;99.90
1205;DHT22;592;48.764;9.174;2022-11-10T08:35:44;9.60;99.90
1205;DHT22;592;48.764;9.174;2022-11-10T08:38:13;9.50;99.90
1205;DHT22;592;48.764;9.174;2022-11-10T08:40:40;9.60;99.90
1205;DHT22;592;48.764;9.174;2022-11-10T08:43:08;9.70;99.90
1205;DHT22;592;48.764;9.174;2022-11-10T08:45:37;9.80;99.90
1205;DHT22;592;48.764;9.174;2022-11-10T08:48:06;9.90;99.90
1205;DHT22;592;48.764;9.174;2022-11-10T08:50:33;10.00;99.90
1205;DHT22;592;48.764;9.174;2022-11-10T08:53:02;10.00;99.90
1205;DHT22;592;48.764;9.174;2022-11-10T08:55:29;10.10;99.90
1205;DHT22;592;48.764;9.174;2022-11-10T08:58:00;10.30;99.90
1205;DHT22;592;48.764;9.174;2022-11-10T09:00:27;10.40;99.90
1205;DHT22;592;48.764;9.174;2022-11-10T09:02:54;10.50;99.90
1205;DHT22;592;48.764;9.174;2022-11-10T09:05:21;10.60;99.90
1205;DHT22;592;48.764;9.174;2022-11-10T09:07:49;10.60;99.90
1205;DHT22;592;48.764;9.174;2022-11-10T09:10:17;10.70;99.90
1205;DHT22;592;48.764;9.174;2022-11-10T09:12:44;10.80;99.90
1205;DHT22;592;48.764;9.174;2022-11-10T09:15:11;10.90;99.90
1205;DHT22;592;48.764;9.174;2022-11-10T09:17:39;10.90;99.90
1205;DHT22;592;48.764;9.174;2022-11-10T09:20:08;11.10;99.90
1205;DHT22;592;48.764;9.174;2022-11-10T09:22:37;11.10;99.90
1205;DHT22;592;48.764;9.174;2022-11-10T09:25:04;11.20;99.90
1205;DHT22;592;48.764;9.174;2022-11-10T09:27:35;11.30;99.90
1205;DHT22;592;48.764;9.174;2022-11-10T09:30:03;11.40;99.90
1205;DHT22;592;48.764;9.174;2022-11-10T09:32:30;11.50;99.90
1205;DHT22;592;48.764;9.174;2022-11-10T09:34:57;11.60;99.90
1205;DHT22;592;48.764;9.174;2022-11-10T09:37:24;11.70;99.90
1205;DHT22;592;48.764;9.174;2022-11-10T09:39:52;11.70;99.90
1205;DHT22;592;48.764;9.174;2022-11-10T09:42:25;11.80;99.90
1205;DHT22;592;48.764;9.174;2022-11-10T09:44:59;11.80;99.90
1205;DHT22;592;48.764;9.174;2022-11-10T09:47:33;11.90;99.90
1205;DHT22;592;48.764;9.174;2022-11-10T09:50:04;11.90;99.90
1205;DHT22;592;48.764;9.174;2022-11-10T09:52:33;12.00;99.90
1205;DHT22;592;48.764;9.174;2022-11-10T09:55:13;12.10;99.90
1205;DHT22;592;48.764;9.174;2022-11-10T09:57:43;12.20;99.90
1205;DHT22;592;48.764;9.174;2022-11-10T10:00:15;12.30;99.90
1205;DHT22;592;48.764;9.174;2022-11-10T10:02:44;12.30;99.90
1205;DHT22;592;48.764;9.174;2022-11-10T10:05:46;12.30;99.90
1205;DHT22;592;48.764;9.174;2022-11-10T10:08:22;12.30;99.90
1205;DHT22;592;48.764;9.174;2022-11-10T10:10:58;12.40;99.90
1205;DHT22;592;48.764;9.174;2022-11-10T10:13:37;12.60;99.90
1205;DHT22;592;48.764;9.174;2022-11-10T10:16:16;12.60;99.90
1205;DHT22;592;48.764;9.174;2022-11-10T10:18:52;12.70;99.90
1205;DHT22;592;48.764;9.174;2022-11-10T10:21:34;12.70;99.90
1205;DHT22;592;48.764;9.174;2022-11-10T10:24:07;12.70;99.90
1205;DHT22;592;48.764;9.174;2022-11-10T10:26:38;12.70;99.90
1205;DHT22;592;48.764;9.174;2022-11-10T10:29:09;12.80;99.90
1205;DHT22;592;48.764;9.174;2022-11-10T10:31:42;12.80;99.90
1205;DHT22;592;48.764;9.174;2022-11-10T10:34:12;12.70;99.90
1205;DHT22;592;48.764;9.174;2022-11-10T10:36:39;12.80;99.90
1205;DHT22;592;48.764;9.174;2022-11-10T10:39:11;12.90;99.90
1205;DHT22;592;48.764;9.174;2022-11-10T10:41:42;13.00;99.90
1205;DHT22;592;48.764;9.174;2022-11-10T10:44:11;13.00;99.90
1205;DHT22;592;48.764;9.174;2022-11-10T10:46:44;13.10;99.90
1205;DHT22;592;48.764;9.174;2022-11-10T10:49:15;13.10;99.90
1205;DHT22;592;48.764;9.174;2022-11-10T10:51:43;13.20;99.90
1205;DHT22;592;48.764;9.174;2022-11-10T10:54:27;13.30;99.90
1205;DHT22;592;48.764;9.174;2022-11-10T10:57:02;13.40;99.90
1205;DHT22;592;48.764;9.174;2022-11-10T10:59:29;13.40;99.90
1205;DHT22;592;48.764;9.174;2022-11-10T11:01:58;13.40;99.90
1205;DHT22;592;48.764;9.174;2022-11-10T11:04:27;13.50;99.90
1205;DHT22;592;48.764;9.174;2022-11-10T11:06:55;13.50;99.90
1205;DHT22;592;48.764;9.174;2022-11-10T11:09:25;13.60;99.90
1205;DHT22;592;48.764;9.174;2022-11-10T11:12:01;13.60;99.90
1205;DHT22;592;48.764;9.174;2022-11-10T11:14:29;13.50;99.90
1205;DHT22;592;48.764;9.174;2022-11-10T11:16:59;13.60;99.90
1205;DHT22;592;48.764;9.174;2022-11-10T11:19:29;13.70;99.90
1205;DHT22;592;48.764;9.174;2022-11-10T11:22:34;13.60;99.90
1205;DHT22;592;48.764;9.174;2022-11-10T11:25:13;13.70;99.90
1205;DHT22;592;48.764;9.174;2022-11-10T11:27:58;13.70;99.90
1205;DHT22;592;48.764;9.174;2022-11-10T11:30:36;13.80;99.90
1205;DHT22;592;48.764;9.174;2022-11-10T11:33:18;13.90;99.90
1205;DHT22;592;48.764;9.174;2022-11-10T11:35:49;13.90;99.90
1205;DHT22;592;48.764;9.174;2022-11-10T11:38:25;14.00;99.90
1205;DHT22;592;48.764;9.174;2022-11-10T11:41:05;14.00;99.90
1205;DHT22;592;48.764;9.174;2022-11-10T11:43:44;13.80;99.90
1205;DHT22;592;48.764;9.174;2022-11-10T11:46:21;13.80;99.90
1205;DHT22;592;48.764;9.174;2022-11-10T11:49:01;13.80;99.90
1205;DHT22;592;48.764;9.174;2022-11-10T11:51:37;13.70;99.90
1205;DHT22;592;48.764;9.174;2022-11-10T11:54:25;13.90;99.90
1205;DHT22;592;48.764;9.174;2022-11-10T11:57:02;14.00;99.90
1205;DHT22;592;48.764;9.174;2022-11-10T11:59:55;14.10;99.90
1205;DHT22;592;48.764;9.174;2022-11-10T12:02:36;14.10;99.90
1205;DHT22;592;48.764;9.174;2022-11-10T12:08:17;14.00;99.90
1205;DHT22;592;48.764;9.174;2022-11-10T12:10:56;13.80;99.90
1205;DHT22;592;48.764;9.174;2022-11-10T12:13:35;13.80;99.90
1205;DHT22;592;48.764;9.174;2022-11-10T12:16:07;13.80;99.90
1205;DHT22;592;48.764;9.174;2022-11-10T12:18:44;13.90;99.90
1205;DHT22;592;48.764;9.174;2022-11-10T12:21:23;13.90;99.90
1205;DHT22;592;48.764;9.174;2022-11-10T12:24:11;13.80;99.90
1205;DHT22;592;48.764;9.174;2022-11-10T12:26:45;13.80;99.90
1205;DHT22;592;48.764;9.174;2022-11-10T12:29:21;13.80;99.90
1205;DHT22;592;48.764;9.174;2022-11-10T12:31:54;13.90;99.90
1205;DHT22;592;48.764;9.174;2022-11-10T12:34:29;14.10;99.90
1205;DHT22;592;48.764;9.174;2022-11-10T12:37:00;14.10;99.90
1205;DHT22;592;48.764;9.174;2022-11-10T12:39:39;14.20;99.90
1205;DHT22;592;48.764;9.174;2022-11-10T12:42:11;14.30;99.90
1205;DHT22;592;48.764;9.174;2022-11-10T12:44:53;14.30;99.90
1205;DHT22;592;48.764;9.174;2022-11-10T12:47:22;14.40;99.90
1205;DHT22;592;48.764;9.174;2022-11-10T12:49:57;14.40;99.90
1205;DHT22;592;48.764;9.174;2022-11-10T12:52:31;14.40;99.90
1205;DHT22;592;48.764;9.174;2022-11-10T12:55:01;14.40;99.90
1205;DHT22;592;48.764;9.174;2022-11-10T12:57:29;14.30;99.90
1205;DHT22;592;48.764;9.174;2022-11-10T12:59:59;14.50;99.90
1205;DHT22;592;48.764;9.174;2022-11-10T13:02:30;14.40;99.90
1205;DHT22;592;48.764;9.174;2022-11-10T13:05:24;14.50;99.90
1205;DHT22;592;48.764;9.174;2022-11-10T13:08:05;14.50;99.90
1205;DHT22;592;48.764;9.174;2022-11-10T13:10:49;14.60;99.90
1205;DHT22;592;48.764;9.174;2022-11-10T13:13:17;14.60;99.90
1205;DHT22;592;48.764;9.174;2022-11-10T13:15:50;14.70;99.90
1205;DHT22;592;48.764;9.174;2022-11-10T13:24:29;14.50;99.90
1205;DHT22;592;48.764;9.174;2022-11-10T13:26:57;14.60;99.90
1205;DHT22;592;48.764;9.174;2022-11-10T13:29:30;14.60;99.90
1205;DHT22;592;48.764;9.174;2022-11-10T13:32:29;14.70;99.90
1205;DHT22;592;48.764;9.174;2022-11-10T13:37:57;14.60;99.90
1205;DHT22;592;48.764;9.174;2022-11-10T13:40:29;14.50;99.90
1205;DHT22;592;48.764;9.174;2022-11-10T13:43:22;14.50;99.90
1205;DHT22;592;48.764;9.174;2022-11-10T13:45:59;14.30;99.90
1205;DHT22;592;48.764;9.174;2022-11-10T13:48:43;14.30;99.90
1205;DHT22;592;48.764;9.174;2022-11-10T13:51:21;14.10;99.90
1205;DHT22;592;48.764;9.174;2022-11-10T13:54:11;14.10;99.90
1205;DHT22;592;48.764;9.174;2022-11-10T13:56:57;13.90;99.90
1205;DHT22;592;48.764;9.174;2022-11-10T13:59:31;14.00;99.90
1205;DHT22;592;48.764;9.174;2022-11-10T14:05:07;13.90;99.90
1205;DHT22;592;48.764;9.174;2022-11-10T14:07:36;13.80;99.90
1205;DHT22;592;48.764;9.174;2022-11-10T14:10:10;13.90;99.90
1205;DHT22;592;48.764;9.174;2022-11-10T14:12:41;13.80;99.90
1205;DHT22;592;48.764;9.174;2022-11-10T14:15:16;13.80;99.90
1205;DHT22;592;48.764;9.174;2022-11-10T14:17:47;13.80;99.90
1205;DHT22;592;48.764;9.174;2022-11-10T14:20:21;13.70;99.90
1205;DHT22;592;48.764;9.174;2022-11-10T14:22:48;13.70;99.90
1205;DHT22;592;48.764;9.174;2022-11-10T14:25:19;13.80;99.90
1205;DHT22;592;48.764;9.174;2022-11-10T14:27:47;13.60;99.90
1205;DHT22;592;48.764;9.174;2022-11-10T14:30:23;13.50;99.90
1205;DHT22;592;48.764;9.174;2022-11-10T14:33:01;13.50;99.90
1205;DHT22;592;48.764;9.174;2022-11-10T14:35:30;13.50;99.90
1205;DHT22;592;48.764;9.174;2022-11-10T14:37:59;13.40;99.90
1205;DHT22;592;48.764;9.174;2022-11-10T14:40:27;13.40;99.90
1205;DHT22;592;48.764;9.174;2022-11-10T14:42:54;13.40;99.90
1205;DHT22;592;48.764;9.174;2022-11-10T14:45:24;13.30;99.90
1205;DHT22;592;48.764;9.174;2022-11-10T14:47:51;13.30;99.90
1205;DHT22;592;48.764;9.174;2022-11-10T14:50:21;13.30;99.90
1205;DHT22;592;48.764;9.174;2022-11-10T14:52:52;13.30;99.90
1205;DHT22;592;48.764;9.174;2022-11-10T14:55:22;13.20;99.90
1205;DHT22;592;48.764;9.174;2022-11-10T14:57:50;13.30;99.90
1205;DHT22;592;48.764;9.174;2022-11-10T15:00:23;13.20;99.90
1205;DHT22;592;48.764;9.174;2022-11-10T15:02:51;13.20;99.90
1205;DHT22;592;48.764;9.174;2022-11-10T15:05:19;13.10;99.90
1205;DHT22;592;48.764;9.174;2022-11-10T15:07:46;13.10;99.90
1205;DHT22;592;48.764;9.174;2022-11-10T15:10:16;13.00;99.90
1205;DHT22;592;48.764;9.174;2022-11-10T15:12:57;12.90;99.90
1205;DHT22;592;48.764;9.174;2022-11-10T15:15:25;12.90;99.90
1205;DHT22;592;48.764;9.174;2022-11-10T15:17:52;13.00;99.90
1205;DHT22;592;48.764;9.174;2022-11-10T15:20:36;12.90;99.90
1205;DHT22;592;48.764;9.174;2022-11-10T15:23:05;12.80;99.90
1205;DHT22;592;48.764;9.174;2022-11-10T15:25:41;12.80;99.90
1205;DHT22;592;48.764;9.174;2022-11-10T15:28:20;12.80;99.90
1205;DHT22;592;48.764;9.174;2022-11-10T15:30:54;12.80;99.90
1205;DHT22;592;48.764;9.174;2022-11-10T15:33:24;12.80;99.90
1205;DHT22;592;48.764;9.174;2022-11-10T15:35:52;12.70;99.90
1205;DHT22;592;48.764;9.174;2022-11-10T15:38:28;12.70;99.90
1205;DHT22;592;48.764;9.174;2022-11-10T15:41:12;12.60;99.90
1205;DHT22;592;48.764;9.174;2022-11-10T15:43:40;12.50;99.90
1205;DHT22;592;48.764;9.174;2022-11-10T15:46:14;12.50;99.90
1205;DHT22;592;48.764;9.174;2022-11-10T15:48:43;12.50;99.90
1205;DHT22;592;48.764;9.174;2022-11-10T15:51:13;12.40;99.90
1205;DHT22;592;48.764;9.174;2022-11-10T15:53:41;12.40;99.90
1205;DHT22;592;48.764;9.174;2022-11-10T15:56:11;12.30;99.90
1205;DHT22;592;48.764;9.174;2022-11-10T15:58:39;12.30;99.90
1205;DHT22;592;48.764;9.174;2022-11-10T16:01:10;12.20;99.90
1205;DHT22;592;48.764;9.174;2022-11-10T16:03:37;12.10;99.90
1205;DHT22;592;48.764;9.174;2022-11-10T16:06:05;12.00;99.90
1205;DHT22;592;48.764;9.174;2022-11-10T16:08:31;12.00;99.90
1205;DHT22;592;48.764;9.174;2022-11-10T16:11:00;11.90;99.90
1205;DHT22;592;48.764;9.174;2022-11-10T16:13:29;11.80;99.90
1205;DHT22;592;48.764;9.174;2022-11-10T16:15:57;11.70;99.90
1205;DHT22;592;48.764;9.174;2022-11-10T16:18:27;11.60;99.90
1205;DHT22;592;48.764;9.174;2022-11-10T16:20:55;11.60;99.90
1205;DHT22;592;48.764;9.174;2022-11-10T16:23:22;11.50;99.90
1205;DHT22;592;48.764;9.174;2022-11-10T16:25:52;11.50;99.90
1205;DHT22;592;48.764;9.174;2022-11-10T16:28:21;11.40;99.90
1205;DHT22;592;48.764;9.174;2022-11-10T16:30:48;11.30;99.90
1205;DHT22;592;48.764;9.174;2022-11-10T16:33:17;11.10;99.90
1205;DHT22;592;48.764;9.174;2022-11-10T16:35:48;11.10;99.90
1205;DHT22;592;48.764;9.174;2022-11-10T16:38:18;11.10;99.90
1205;DHT22;592;48.764;9.174;2022-11-10T16:40:49;11.10;99.90
1205;DHT22;592;48.764;9.174;2022-11-10T16:43:17;11.10;99.90
1205;DHT22;592;48.764;9.174;2022-11-10T16:45:45;11.00;99.90
1205;DHT22;592;48.764;9.174;2022-11-10T16:48:15;11.00;99.90
1205;DHT22;592;48.764;9.174;2022-11-10T16:50:43;11.00;99.90
1205;DHT22;592;48.764;9.174;2022-11-10T16:53:14;11.00;99.90
1205;DHT22;592;48.764;9.174;2022-11-10T16:55:42;10.90;99.90
1205;DHT22;592;48.764;9.174;2022-11-10T16:58:08;10.90;99.90
1205;DHT22;592;48.764;9.174;2022-11-10T17:00:36;10.80;99.90